createdAt,value
2022-12-24T00:00:30.142Z,265
2022-12-24T00:05:30.102Z,262.5
2022-12-24T00:10:30.097Z,265
2022-12-24T00:15:30.122Z,267.5
2022-12-24T00:20:30.100Z,262.5
2022-12-24T00:25:30.116Z,267.5
2022-12-24T00:30:30.230Z,260
2022-12-24T00:35:30.103Z,270
2022-12-24T00:40:30.103Z,280
2022-12-24T00:45:30.110Z,272.5
2022-12-24T00:50:30.103Z,265
2022-12-24T00:55:30.097Z,265
2022-12-24T01:00:30.090Z,272.5
2022-12-24T01:05:30.099Z,270
2022-12-24T01:10:30.092Z,270
2022-12-24T01:15:30.177Z,270
2022-12-24T01:20:30.097Z,270
2022-12-24T01:25:30.096Z,275
2022-12-24T01:30:30.099Z,272.5
2022-12-24T01:35:30.103Z,267.5
2022-12-24T01:40:30.097Z,272.5
2022-12-24T01:45:30.099Z,265
2022-12-24T01:50:30.096Z,267.5
2022-12-24T01:55:30.118Z,275
2022-12-24T02:00:30.100Z,280
2022-12-24T02:05:30.103Z,275
2022-12-24T02:10:30.093Z,262.5
2022-12-24T02:15:30.096Z,272.5
2022-12-24T02:20:30.104Z,267.5
2022-12-24T02:25:30.120Z,265
2022-12-24T02:30:30.103Z,262.5
2022-12-24T02:35:30.119Z,275
2022-12-24T02:40:30.110Z,270
2022-12-24T02:45:30.189Z,272.5
2022-12-24T02:50:30.106Z,270
2022-12-24T02:55:30.117Z,262.5
2022-12-24T03:00:30.137Z,270
2022-12-24T03:05:30.093Z,265
2022-12-24T03:10:30.115Z,270
2022-12-24T03:15:30.102Z,265
2022-12-24T03:20:30.099Z,270
2022-12-24T03:25:30.090Z,267.5
2022-12-24T03:30:30.100Z,277.5
2022-12-24T03:35:30.102Z,272.5
2022-12-24T03:40:30.241Z,270
2022-12-24T03:45:30.192Z,275
2022-12-24T03:50:30.097Z,265
2022-12-24T03:55:30.105Z,275
2022-12-24T04:00:30.100Z,270
2022-12-24T04:05:30.107Z,265
2022-12-24T04:10:30.097Z,265
2022-12-24T04:15:30.096Z,250
2022-12-24T04:20:30.113Z,267.5
2022-12-24T04:25:30.115Z,267.5
2022-12-24T04:30:30.097Z,265
2022-12-24T04:35:30.108Z,272.5
2022-12-24T04:40:30.095Z,270
2022-12-24T04:45:30.165Z,275
2022-12-24T04:50:30.104Z,267.5
2022-12-24T04:55:30.099Z,272.5
2022-12-24T05:00:30.093Z,265
2022-12-24T05:05:30.105Z,267.5
2022-12-24T05:10:30.092Z,262.5
2022-12-24T05:15:30.098Z,270
2022-12-24T05:20:30.102Z,262.5
2022-12-24T05:25:30.103Z,262.5
2022-12-24T05:30:30.189Z,257.5
2022-12-24T05:35:30.104Z,250
2022-12-24T05:40:30.102Z,240
2022-12-24T05:45:30.105Z,260
2022-12-24T05:50:30.087Z,257.5
2022-12-24T05:55:30.099Z,255
2022-12-24T06:00:30.099Z,260
2022-12-24T06:05:30.108Z,262.5
2022-12-24T06:10:30.122Z,255
2022-12-24T06:15:30.095Z,270
2022-12-24T06:20:30.097Z,260
2022-12-24T06:25:30.090Z,255
2022-12-24T06:30:30.092Z,255
2022-12-24T06:35:30.100Z,267.5
2022-12-24T06:40:30.098Z,265
2022-12-24T06:45:30.098Z,270
2022-12-24T06:50:30.112Z,270
2022-12-24T06:55:30.115Z,262.5
2022-12-24T07:00:30.115Z,247.5
2022-12-24T07:05:30.132Z,267.5
2022-12-24T07:10:30.169Z,255
2022-12-24T07:15:30.108Z,265
2022-12-24T07:20:30.112Z,260
2022-12-24T07:25:30.117Z,257.5
2022-12-24T07:30:30.123Z,245
2022-12-24T07:35:30.128Z,250
2022-12-24T07:40:30.117Z,247.5
2022-12-24T07:45:30.124Z,250
2022-12-24T07:50:30.127Z,247.5
2022-12-24T07:55:30.110Z,247.5
2022-12-24T08:00:30.112Z,262.5
2022-12-24T08:05:30.111Z,260
2022-12-24T08:10:30.101Z,262.5
2022-12-24T08:15:30.129Z,252.5
2022-12-24T08:20:30.121Z,260
2022-12-24T08:25:30.142Z,250
2022-12-24T08:30:30.116Z,262.5
2022-12-24T08:35:30.153Z,260
2022-12-24T08:40:30.116Z,255
2022-12-24T08:45:33.220Z,245
2022-12-24T08:50:30.110Z,252.5
2022-12-24T08:55:30.100Z,242.5
2022-12-24T09:00:30.107Z,242.5
2022-12-24T09:05:30.122Z,240
2022-12-24T09:10:30.145Z,237.5
2022-12-24T09:15:30.121Z,235
2022-12-24T09:20:30.147Z,230
2022-12-24T09:25:30.114Z,245
2022-12-24T09:30:30.147Z,232.5
2022-12-24T09:35:30.111Z,237.5
2022-12-24T09:40:30.109Z,245
2022-12-24T09:45:30.277Z,232.5
2022-12-24T09:50:30.123Z,242.5
2022-12-24T09:55:30.099Z,230
2022-12-24T10:00:30.103Z,242.5
2022-12-24T10:05:30.102Z,255
2022-12-24T10:10:30.102Z,232.5
2022-12-24T10:15:30.107Z,257.5
2022-12-24T10:20:30.097Z,267.5
2022-12-24T10:25:30.114Z,265
2022-12-24T10:30:30.135Z,267.5
2022-12-24T10:35:30.109Z,260
2022-12-24T10:40:30.097Z,260
2022-12-24T10:45:30.120Z,267.5
2022-12-24T10:50:30.099Z,265
2022-12-24T10:55:30.110Z,262.5
2022-12-24T11:00:35.454Z,250
2022-12-24T11:05:30.093Z,275
2022-12-24T11:10:30.087Z,275
2022-12-24T11:15:30.129Z,255
2022-12-24T11:20:30.106Z,262.5
2022-12-24T11:25:30.089Z,275
2022-12-24T11:30:30.103Z,290
2022-12-24T11:35:30.097Z,257.5
2022-12-24T11:40:30.091Z,265
2022-12-24T11:45:30.089Z,260
2022-12-24T11:50:30.087Z,240
2022-12-24T11:55:30.096Z,247.5
2022-12-24T12:00:30.087Z,250
2022-12-24T12:05:30.087Z,237.5
2022-12-24T12:10:30.083Z,250
2022-12-24T12:15:30.090Z,247.5
2022-12-24T12:20:30.091Z,245
2022-12-24T12:25:30.093Z,262.5
2022-12-24T12:30:30.087Z,252.5
2022-12-24T12:35:30.092Z,275
2022-12-24T12:40:30.088Z,257.5
2022-12-24T12:45:30.083Z,262.5
2022-12-24T12:50:30.074Z,260
2022-12-24T12:55:30.082Z,257.5
2022-12-24T13:00:30.160Z,287.5
2022-12-24T13:05:30.097Z,265
2022-12-24T13:10:30.085Z,280
2022-12-24T13:15:30.105Z,277.5
2022-12-24T13:20:30.094Z,270
2022-12-24T13:25:30.097Z,267.5
2022-12-24T13:30:30.083Z,270
2022-12-24T13:35:35.247Z,275
2022-12-24T13:40:30.141Z,265
2022-12-24T13:45:30.343Z,257.5
2022-12-24T13:50:30.218Z,267.5
2022-12-24T13:55:30.308Z,272.5
2022-12-24T14:00:30.412Z,245
2022-12-24T14:05:30.285Z,245
2022-12-24T14:10:30.335Z,265
2022-12-24T14:15:30.092Z,265
2022-12-24T14:20:30.088Z,265
2022-12-24T14:25:30.091Z,277.5
2022-12-24T14:30:30.117Z,285
2022-12-24T14:35:30.090Z,305
2022-12-24T14:40:30.116Z,237.5
2022-12-24T14:45:30.152Z,225
2022-12-24T14:50:30.112Z,215
2022-12-24T14:55:30.108Z,217.5
2022-12-24T15:00:33.204Z,205
2022-12-24T15:05:30.120Z,217.5
2022-12-24T15:10:30.116Z,205
2022-12-24T15:15:30.093Z,225
2022-12-24T15:20:30.115Z,222.5
2022-12-24T15:25:30.096Z,220
2022-12-24T15:30:30.178Z,227.5
2022-12-24T15:35:30.094Z,245
2022-12-24T15:40:30.112Z,260
2022-12-24T15:45:30.107Z,262.5
2022-12-24T15:50:30.124Z,252.5
2022-12-24T15:55:30.094Z,260
2022-12-24T16:00:30.110Z,265
2022-12-24T16:05:30.125Z,277.5
2022-12-24T16:10:30.295Z,275
2022-12-24T16:15:30.154Z,270
2022-12-24T16:20:30.098Z,277.5
2022-12-24T16:25:30.095Z,272.5
2022-12-24T16:30:30.099Z,267.5
2022-12-24T16:35:30.101Z,275
2022-12-24T16:40:30.109Z,255
2022-12-24T16:45:30.097Z,257.5
2022-12-24T16:50:30.101Z,237.5
2022-12-24T16:55:30.094Z,230
2022-12-24T17:00:30.108Z,247.5
2022-12-24T17:05:30.093Z,247.5
2022-12-24T17:10:30.104Z,255
2022-12-24T17:15:30.187Z,260
2022-12-24T17:50:30.190Z,250
2022-12-24T17:55:30.098Z,257.5
2022-12-24T18:00:33.114Z,265
2022-12-24T18:05:30.094Z,267.5
2022-12-24T18:10:30.087Z,275
2022-12-24T18:15:30.098Z,255
2022-12-24T18:20:30.106Z,260
2022-12-24T18:25:30.100Z,267.5
2022-12-24T18:30:30.104Z,275
2022-12-24T18:35:30.093Z,272.5
2022-12-24T18:40:30.090Z,270
2022-12-24T18:45:30.099Z,257.5
2022-12-24T18:50:30.088Z,262.5
2022-12-24T18:55:30.095Z,265
2022-12-24T19:00:30.133Z,270
2022-12-24T19:05:30.091Z,270
2022-12-24T19:10:30.080Z,267.5
2022-12-24T19:15:35.551Z,272.5
2022-12-24T19:20:30.081Z,265
2022-12-24T19:25:30.101Z,270
2022-12-24T19:30:30.090Z,260
2022-12-24T19:35:30.115Z,260
2022-12-24T19:40:30.100Z,265
2022-12-24T19:45:30.128Z,275
2022-12-24T19:50:30.102Z,265
2022-12-24T19:55:30.105Z,265
2022-12-24T20:00:30.093Z,267.5
2022-12-24T20:05:30.109Z,270
2022-12-24T20:10:30.097Z,270
2022-12-24T20:15:30.108Z,312.5
2022-12-24T20:20:30.099Z,305
2022-12-24T20:25:30.101Z,297.5
2022-12-24T20:30:30.099Z,205
2022-12-24T20:35:30.114Z,235
2022-12-24T20:40:30.114Z,235
2022-12-24T20:45:30.138Z,237.5
2022-12-24T20:50:30.102Z,237.5
2022-12-24T20:55:30.113Z,237.5
2022-12-24T21:00:30.110Z,237.5
2022-12-24T21:05:30.137Z,190
2022-12-24T21:10:34.157Z,177.5
2022-12-24T21:15:30.115Z,125
2022-12-24T21:20:30.137Z,195
2022-12-24T21:25:30.094Z,195
2022-12-24T21:30:30.199Z,210
2022-12-24T21:35:30.115Z,222.5
2022-12-24T21:40:30.120Z,247.5
2022-12-24T21:45:30.112Z,275
2022-12-24T21:50:32.017Z,275
2022-12-24T21:55:30.106Z,300
2022-12-24T22:00:30.105Z,310
2022-12-24T22:05:30.111Z,310
2022-12-24T22:10:30.118Z,287.5
2022-12-24T22:15:30.112Z,270
2022-12-24T22:20:30.096Z,262.5
2022-12-24T22:25:30.099Z,257.5
2022-12-24T22:30:30.121Z,240
2022-12-24T22:35:30.108Z,230
2022-12-24T22:40:30.098Z,230
2022-12-24T22:45:30.108Z,245
2022-12-24T22:50:30.119Z,260
2022-12-24T22:55:30.111Z,265
2022-12-24T23:00:30.093Z,250
2022-12-24T23:05:30.121Z,257.5
2022-12-24T23:10:30.088Z,267.5
2022-12-24T23:15:30.138Z,232.5
2022-12-24T23:20:30.105Z,227.5
2022-12-24T23:25:30.103Z,235
2022-12-24T23:30:30.094Z,235
2022-12-24T23:35:30.100Z,245
2022-12-24T23:40:30.114Z,255
2022-12-24T23:45:30.119Z,245
2022-12-24T23:50:30.093Z,242.5
2022-12-24T23:55:30.140Z,257.5
